Terminal Aerodrome Forecast
Issued by NWS

Home | Current Version | Previous Version | Text Only | Print | Product List | Glossary Off
Versions: 1 2 3 4 5 6 7 8 9 10 11 12 13 14 15 16 17 18

288
FTUS43 KGRB 220246 AAB
TAFAUW
TAF AMD
KAUW 220246Z 2203/2224 16010KT P6SM BKN045 WS010/18035KT
     FM220500 17008KT 5SM -TSRA OVC025CB WS010/18035KT
     FM220700 18006KT 6SM -SHRA OVC027 WS010/19035KT
     FM220900 23005KT 5SM -SHRA OVC006
     FM221500 27005KT P6SM -SHRA OVC018
     FM221900 29007KT P6SM SCT030=

USA.gov is the U.S. government's official web portal to all federal, state and local government web resources and services.